Time;durP1;ratioP1;P1;durP2;ratioP2;P2;SDS_P1;SDS_P2;PMS_P1;PMS_P2;Temp;Humidity;BMP_temperature;BMP_pressure;BME280_temperature;BME280_humidity;BME280_pressure;Samples;Min_cycle;Max_cycle;Signal;HPM_P1;HPM_P2
2021/10/09 00:01:10;;;;;;;0.80;0.70;;;10.00;99.10;;;;;;5044806;28;20439;-80
2021/10/09 00:03:35;;;;;;;1.43;1.33;;;10.00;99.10;;;;;;5043868;28;20222;-80
2021/10/09 00:06:02;;;;;;;1.13;1.03;;;10.00;99.10;;;;;;5046174;28;20205;-78
2021/10/09 00:08:28;;;;;;;0.70;0.60;;;9.90;99.10;;;;;;5046599;28;20413;-79
2021/10/09 00:10:54;;;;;;;1.60;1.50;;;9.90;99.10;;;;;;5046670;28;20178;-78
2021/10/09 00:13:21;;;;;;;2.60;1.70;;;9.90;99.10;;;;;;5046097;28;20500;-79
2021/10/09 00:15:46;;;;;;;0.95;0.85;;;9.80;99.10;;;;;;5046257;28;20178;-79
2021/10/09 00:18:12;;;;;;;1.70;1.30;;;9.70;99.10;;;;;;5046209;28;20209;-80
2021/10/09 00:20:38;;;;;;;0.60;0.53;;;9.70;99.10;;;;;;5045483;28;20443;-79
2021/10/09 00:23:04;;;;;;;1.33;0.77;;;9.70;99.10;;;;;;5045801;28;20467;-79
2021/10/09 00:25:30;;;;;;;1.03;0.93;;;9.60;99.10;;;;;;5044830;28;20170;-79
2021/10/09 00:27:55;;;;;;;0.95;0.85;;;9.60;99.10;;;;;;5044715;28;20444;-78
2021/10/09 00:30:21;;;;;;;0.70;0.60;;;9.40;99.10;;;;;;5047153;28;20224;-80
2021/10/09 00:32:47;;;;;;;0.60;0.50;;;9.40;99.10;;;;;;5045598;28;20409;-80
2021/10/09 00:35:13;;;;;;;0.63;0.53;;;9.40;99.10;;;;;;5044820;28;20241;-80
2021/10/09 00:37:39;;;;;;;1.98;1.08;;;9.40;99.10;;;;;;5045511;28;20209;-79
2021/10/09 00:40:05;;;;;;;1.93;0.93;;;9.40;99.10;;;;;;5044585;28;20189;-80
2021/10/09 00:42:31;;;;;;;5.35;1.80;;;9.30;99.10;;;;;;5044038;28;20193;-79
2021/10/09 00:44:57;;;;;;;0.70;0.60;;;9.40;99.10;;;;;;5044785;28;20174;-79
2021/10/09 00:47:24;;;;;;;2.00;0.83;;;9.40;99.10;;;;;;5045481;28;20440;-80
2021/10/09 00:49:50;;;;;;;2.25;1.15;;;9.30;99.10;;;;;;5044412;28;20471;-79
2021/10/09 00:52:17;;;;;;;6.35;1.25;;;9.40;99.10;;;;;;5043910;28;20174;-79
2021/10/09 00:54:45;;;;;;;0.80;0.70;;;9.30;99.10;;;;;;5043895;28;20521;-80
2021/10/09 00:57:16;;;;;;;1.48;1.30;;;9.20;99.10;;;;;;5044533;28;20217;-80
2021/10/09 00:59:43;;;;;;;0.57;0.47;;;9.30;99.10;;;;;;5043818;28;20201;-80
2021/10/09 01:02:09;;;;;;;1.08;0.98;;;9.20;99.10;;;;;;5043484;28;20209;-80
2021/10/09 01:04:36;;;;;;;1.47;0.43;;;9.20;99.10;;;;;;5043469;28;20178;-80
2021/10/09 01:07:04;;;;;;;1.27;1.20;;;9.20;99.10;;;;;;5043218;28;20952;-80
2021/10/09 01:09:30;;;;;;;1.80;1.25;;;9.20;99.10;;;;;;5043266;28;20181;-80
2021/10/09 01:14:26;;;;;;;0.60;0.50;;;9.20;99.10;;;;;;5018892;28;20217;-82
2021/10/09 01:16:52;;;;;;;5.35;1.38;;;9.20;99.10;;;;;;5018769;28;20230;-81
2021/10/09 01:19:18;;;;;;;3.47;1.60;;;9.20;99.10;;;;;;5018489;28;20170;-82
2021/10/09 01:21:46;;;;;;;1.33;1.23;;;9.10;99.10;;;;;;5019281;28;20421;-82
2021/10/09 01:24:12;;;;;;;0.60;0.50;;;9.10;99.10;;;;;;5018400;28;20410;-81
2021/10/09 01:26:39;;;;;;;1.65;1.55;;;9.10;99.10;;;;;;5017737;28;20230;-82
2021/10/09 01:29:07;;;;;;;2.60;1.00;;;9.10;99.10;;;;;;5016970;28;20265;-82
2021/10/09 01:31:33;;;;;;;4.95;1.08;;;9.10;99.10;;;;;;5016319;28;20542;-82
2021/10/09 01:34:00;;;;;;;0.88;0.80;;;9.10;99.10;;;;;;5017463;28;20179;-81
2021/10/09 01:36:34;;;;;;;2.22;2.05;;;9.00;99.10;;;;;;5016073;28;20194;-81
2021/10/09 01:39:00;;;;;;;5.85;1.45;;;9.00;99.10;;;;;;5016510;28;20531;-82
2021/10/09 01:41:27;;;;;;;0.65;0.55;;;9.00;99.10;;;;;;5017028;28;20182;-81
2021/10/09 01:43:53;;;;;;;1.17;1.08;;;8.90;99.10;;;;;;5016278;28;20175;-82
2021/10/09 01:46:19;;;;;;;0.70;0.60;;;8.90;99.10;;;;;;5015922;28;20283;-81
2021/10/09 01:48:45;;;;;;;3.67;1.20;;;8.90;99.10;;;;;;5017308;28;20194;-82
2021/10/09 01:51:11;;;;;;;1.35;0.75;;;8.90;99.10;;;;;;5015566;28;20167;-82
2021/10/09 01:53:40;;;;;;;1.00;0.93;;;8.90;99.10;;;;;;5016263;28;20174;-82
2021/10/09 01:56:06;;;;;;;0.65;0.57;;;8.80;99.10;;;;;;5015173;28;20316;-81
2021/10/09 01:58:36;;;;;;;6.28;1.45;;;8.80;99.10;;;;;;5017634;28;20256;-82
2021/10/09 02:01:02;;;;;;;1.30;0.85;;;8.80;99.10;;;;;;5014256;28;20265;-81
2021/10/09 02:03:28;;;;;;;2.65;0.73;;;8.80;99.10;;;;;;5012842;28;20166;-81
2021/10/09 02:05:54;;;;;;;0.50;0.50;;;8.80;99.10;;;;;;5014498;28;20543;-82
2021/10/09 02:08:20;;;;;;;1.40;0.80;;;8.70;99.10;;;;;;5015200;28;20421;-81
2021/10/09 02:10:52;;;;;;;14.33;1.27;;;8.70;99.10;;;;;;5015316;28;20417;-81
2021/10/09 02:13:22;;;;;;;8.68;1.15;;;8.60;99.10;;;;;;5014566;28;20437;-81
2021/10/09 02:15:58;;;;;;;0.90;0.80;;;8.60;99.10;;;;;;5015489;28;20205;-81
2021/10/09 02:18:46;;;;;;;0.80;0.70;;;8.60;99.10;;;;;;5015252;28;20202;-81
2021/10/09 02:26:52;;;;;;;0.95;0.85;;;8.50;99.10;;;;;;5016616;28;20217;-82
2021/10/09 02:29:19;;;;;;;1.60;1.40;;;8.50;99.10;;;;;;5015036;28;20631;-81
2021/10/09 02:31:45;;;;;;;1.02;1.00;;;8.50;99.10;;;;;;5014820;28;20266;-81
2021/10/09 02:34:11;;;;;;;1.60;1.55;;;8.50;99.10;;;;;;5014648;28;20174;-82
2021/10/09 02:36:37;;;;;;;1.83;0.65;;;8.60;99.10;;;;;;5015423;28;20210;-81
2021/10/09 02:39:04;;;;;;;0.70;0.60;;;8.60;99.10;;;;;;5015104;28;20266;-81
2021/10/09 02:41:29;;;;;;;1.00;0.98;;;8.60;99.10;;;;;;5014881;28;20418;-81
2021/10/09 02:43:56;;;;;;;0.90;0.80;;;8.60;99.10;;;;;;5014967;28;20539;-81
2021/10/09 02:46:21;;;;;;;3.50;1.15;;;8.70;99.10;;;;;;5014898;28;20194;-81
2021/10/09 02:48:47;;;;;;;1.43;1.33;;;8.60;99.10;;;;;;5016020;28;20171;-82
2021/10/09 02:51:13;;;;;;;0.90;0.80;;;8.60;99.10;;;;;;5015550;28;20166;-81
2021/10/09 02:53:39;;;;;;;1.50;1.00;;;8.60;99.10;;;;;;5014265;28;20456;-81
2021/10/09 02:56:05;;;;;;;0.80;0.70;;;8.60;99.10;;;;;;5014171;28;20174;-81
2021/10/09 02:58:30;;;;;;;0.73;0.63;;;8.60;99.10;;;;;;5013848;28;20273;-82
2021/10/09 03:00:56;;;;;;;1.17;0.80;;;8.60;99.10;;;;;;5013210;28;20421;-81
2021/10/09 03:03:22;;;;;;;0.53;0.50;;;8.60;99.10;;;;;;5015412;28;20414;-81
2021/10/09 03:05:48;;;;;;;0.90;0.80;;;8.50;99.10;;;;;;5015352;28;20178;-82
2021/10/09 03:08:14;;;;;;;1.13;1.03;;;8.50;99.10;;;;;;5014512;28;20773;-82
2021/10/09 03:10:40;;;;;;;1.63;1.52;;;8.50;99.10;;;;;;5015503;28;20663;-81
2021/10/09 03:13:07;;;;;;;2.15;1.05;;;8.50;99.10;;;;;;5014125;28;20253;-82
2021/10/09 03:15:33;;;;;;;0.63;0.52;;;8.50;99.10;;;;;;5016133;28;20233;-81
2021/10/09 03:17:59;;;;;;;1.17;0.70;;;8.50;99.10;;;;;;5014811;28;20210;-81
2021/10/09 03:20:24;;;;;;;0.60;0.50;;;8.50;99.10;;;;;;5014641;28;20460;-81
2021/10/09 03:22:50;;;;;;;1.07;0.50;;;8.50;99.10;;;;;;5014218;28;20178;-80
2021/10/09 03:25:17;;;;;;;2.73;0.97;;;8.50;99.10;;;;;;5015035;28;20170;-81
2021/10/09 03:27:43;;;;;;;0.70;0.60;;;8.40;99.10;;;;;;5017512;28;20442;-81
2021/10/09 03:30:10;;;;;;;1.03;0.93;;;8.40;99.10;;;;;;5017339;28;20171;-81
2021/10/09 03:32:37;;;;;;;0.70;0.60;;;8.30;99.10;;;;;;5017420;28;20999;-81
2021/10/09 03:35:03;;;;;;;2.40;1.20;;;8.30;99.10;;;;;;5016694;28;20643;-81
2021/10/09 03:37:29;;;;;;;1.13;0.55;;;8.30;99.10;;;;;;5019716;28;20209;-82
2021/10/09 03:39:57;;;;;;;0.60;0.50;;;8.30;99.10;;;;;;5017437;28;20171;-82
2021/10/09 03:42:33;;;;;;;11.60;1.08;;;8.20;99.10;;;;;;5016358;28;20421;-82
2021/10/09 03:45:23;;;;;;;1.45;0.50;;;8.20;99.10;;;;;;5016599;28;20193;-81
2021/10/09 03:52:59;;;;;;;5.40;1.07;;;8.10;99.10;;;;;;5017529;28;20546;-82
2021/10/09 03:55:25;;;;;;;0.68;0.60;;;8.00;99.10;;;;;;5016326;28;20410;-81
2021/10/09 03:57:50;;;;;;;1.67;1.57;;;8.00;99.10;;;;;;5017281;28;20761;-82
2021/10/09 04:00:20;;;;;;;1.90;1.40;;;8.00;99.10;;;;;;5017984;28;20680;-82
2021/10/09 04:02:46;;;;;;;0.75;0.65;;;8.00;99.10;;;;;;5017382;28;20166;-82
2021/10/09 04:05:12;;;;;;;0.93;0.82;;;8.00;99.10;;;;;;5017277;28;20639;-82
2021/10/09 04:07:39;;;;;;;2.08;1.20;;;8.00;99.10;;;;;;5017908;28;20670;-83
2021/10/09 04:10:07;;;;;;;0.88;0.80;;;7.90;99.10;;;;;;5017719;28;20447;-83
2021/10/09 04:12:33;;;;;;;0.55;0.47;;;7.90;99.10;;;;;;5017141;28;20198;-83
2021/10/09 04:15:00;;;;;;;0.82;0.73;;;7.90;99.10;;;;;;5017379;28;20175;-83
2021/10/09 04:17:25;;;;;;;2.15;1.35;;;7.90;99.10;;;;;;5017040;28;20195;-83
2021/10/09 04:19:51;;;;;;;1.13;1.03;;;8.00;99.10;;;;;;5016935;28;20631;-82
2021/10/09 04:22:17;;;;;;;1.13;0.70;;;8.00;99.10;;;;;;5016529;28;20458;-83
2021/10/09 04:24:43;;;;;;;0.70;0.60;;;7.90;99.10;;;;;;5015803;28;20402;-83
2021/10/09 04:27:09;;;;;;;0.70;0.70;;;8.00;99.10;;;;;;5019076;28;20440;-83
2021/10/09 04:29:35;;;;;;;0.93;0.70;;;8.00;99.10;;;;;;5017173;28;20413;-83
2021/10/09 04:32:00;;;;;;;1.27;1.23;;;7.90;99.10;;;;;;5018232;28;20182;-82
2021/10/09 04:34:27;;;;;;;0.60;0.50;;;7.90;99.10;;;;;;5016669;28;20174;-83
2021/10/09 04:36:55;;;;;;;1.42;0.95;;;7.80;99.10;;;;;;5015443;28;20489;-83
2021/10/09 04:39:22;;;;;;;2.88;0.90;;;7.80;99.10;;;;;;5015503;28;20175;-82
2021/10/09 04:41:48;;;;;;;0.93;0.82;;;7.80;99.10;;;;;;5015664;28;20174;-82
2021/10/09 04:44:14;;;;;;;0.40;0.40;;;7.80;99.10;;;;;;5015530;28;20171;-82
2021/10/09 04:46:39;;;;;;;0.63;0.60;;;7.80;99.10;;;;;;5015924;28;20233;-82
2021/10/09 04:49:05;;;;;;;0.60;0.50;;;7.80;99.10;;;;;;5017704;28;20418;-82
2021/10/09 04:51:31;;;;;;;0.77;0.77;;;7.80;99.10;;;;;;5018305;28;20245;-83
2021/10/09 04:53:57;;;;;;;0.67;0.63;;;7.70;99.10;;;;;;5017349;28;20373;-83
2021/10/09 04:56:22;;;;;;;0.97;0.60;;;7.70;99.10;;;;;;5017230;28;20524;-83
2021/10/09 04:58:48;;;;;;;0.77;0.67;;;7.70;99.10;;;;;;5018176;28;20178;-83
2021/10/09 05:01:14;;;;;;;1.70;1.63;;;7.70;99.10;;;;;;5018276;28;20492;-83
2021/10/09 05:03:40;;;;;;;2.67;1.50;;;7.70;99.10;;;;;;5018118;28;20198;-83
2021/10/09 05:06:06;;;;;;;0.87;0.77;;;7.60;99.10;;;;;;5017359;28;20206;-83
2021/10/09 05:08:31;;;;;;;3.10;2.90;;;7.70;99.10;;;;;;5019265;28;20689;-83
2021/10/09 05:10:58;;;;;;;0.40;0.40;;;7.70;99.10;;;;;;5019707;28;20166;-83
2021/10/09 05:13:24;;;;;;;0.73;0.70;;;7.70;99.10;;;;;;5019198;28;20245;-83
2021/10/09 05:15:50;;;;;;;1.13;0.60;;;7.70;99.10;;;;;;5018726;28;20166;-82
2021/10/09 05:18:16;;;;;;;5.57;1.13;;;7.60;99.10;;;;;;5017225;28;20206;-82
2021/10/09 05:20:42;;;;;;;0.60;0.50;;;7.60;99.10;;;;;;5016436;28;20186;-82
2021/10/09 05:23:07;;;;;;;7.47;1.37;;;7.60;99.10;;;;;;5016365;28;20670;-82
2021/10/09 05:25:34;;;;;;;0.90;0.73;;;7.60;99.10;;;;;;5016750;28;20413;-83
2021/10/09 05:28:10;;;;;;;4.07;2.83;;;7.60;99.10;;;;;;5016305;28;20434;-83
2021/10/09 05:30:36;;;;;;;0.70;0.60;;;7.70;99.10;;;;;;5016952;28;20174;-83
2021/10/09 05:35:44;;;;;;;1.48;0.65;;;7.70;99.10;;;;;;5018422;28;20170;-83
2021/10/09 05:38:10;;;;;;;0.60;0.50;;;7.70;99.10;;;;;;5016957;28;20209;-83
2021/10/09 05:40:36;;;;;;;1.05;0.95;;;7.70;99.10;;;;;;5016820;28;20410;-83
2021/10/09 05:43:02;;;;;;;0.63;0.52;;;7.70;99.10;;;;;;5018231;28;20233;-83
2021/10/09 05:45:28;;;;;;;0.47;0.45;;;7.70;99.10;;;;;;5017644;28;20585;-83
2021/10/09 05:47:54;;;;;;;0.60;0.50;;;7.70;99.10;;;;;;5017226;28;20198;-83
2021/10/09 05:50:25;;;;;;;1.73;1.20;;;7.70;99.10;;;;;;5017989;28;20528;-83
2021/10/09 05:55:36;;;;;;;0.60;0.50;;;7.70;99.10;;;;;;5019202;28;20174;-83
2021/10/09 06:59:58;;;;;;;3.17;0.80;;;8.40;99.10;;;;;;5018513;28;20176;-82
2021/10/09 07:02:24;;;;;;;1.40;0.80;;;8.50;99.10;;;;;;5018957;28;20171;-82
2021/10/09 07:04:50;;;;;;;1.37;0.70;;;8.60;99.10;;;;;;5019481;28;20174;-83
2021/10/09 07:07:19;;;;;;;1.80;1.30;;;8.60;99.10;;;;;;5018773;28;20194;-83
2021/10/09 07:09:45;;;;;;;0.57;0.50;;;8.70;99.10;;;;;;5018749;28;20421;-82
2021/10/09 07:12:11;;;;;;;0.60;0.50;;;8.70;99.10;;;;;;5018021;28;20209;-82
2021/10/09 07:14:37;;;;;;;1.60;1.15;;;8.80;99.10;;;;;;5019423;28;20173;-82
2021/10/09 07:17:03;;;;;;;1.65;0.73;;;8.80;99.10;;;;;;5019280;28;20198;-81
2021/10/09 07:19:29;;;;;;;0.60;0.50;;;8.90;99.10;;;;;;5020579;28;20188;-82
2021/10/09 07:21:55;;;;;;;1.03;0.90;;;8.90;99.10;;;;;;5020626;28;20175;-81
2021/10/09 07:24:21;;;;;;;3.50;0.80;;;9.00;99.10;;;;;;5019412;28;20186;-82
2021/10/09 07:26:46;;;;;;;0.80;0.77;;;9.10;99.10;;;;;;5018279;28;20195;-82
2021/10/09 07:29:12;;;;;;;0.97;0.87;;;9.10;99.10;;;;;;5019506;28;20448;-82
2021/10/09 07:31:38;;;;;;;0.50;0.40;;;9.20;99.10;;;;;;5018917;28;20511;-82
2021/10/09 07:34:04;;;;;;;2.03;1.25;;;9.30;99.10;;;;;;5018997;28;20171;-81
2021/10/09 07:36:30;;;;;;;3.95;0.80;;;9.40;99.10;;;;;;5018969;28;20564;-82
2021/10/09 07:38:56;;;;;;;0.60;0.50;;;9.50;99.10;;;;;;5020482;28;20179;-82
2021/10/09 07:41:22;;;;;;;1.65;1.38;;;9.60;99.10;;;;;;5021721;28;20174;-81
2021/10/09 07:43:48;;;;;;;0.93;0.83;;;9.70;99.10;;;;;;5018801;28;20175;-82
2021/10/09 07:46:13;;;;;;;2.33;1.50;;;9.80;99.10;;;;;;5017813;28;20346;-81
2021/10/09 07:48:39;;;;;;;3.40;1.13;;;9.90;99.10;;;;;;5018844;28;20425;-82
2021/10/09 07:51:06;;;;;;;0.50;0.50;;;10.00;99.10;;;;;;5019964;28;20210;-83
2021/10/09 07:53:32;;;;;;;0.75;0.57;;;10.10;99.10;;;;;;5025063;28;20189;-82
2021/10/09 07:55:57;;;;;;;2.27;1.20;;;10.20;99.10;;;;;;5019619;28;20170;-82
2021/10/09 07:58:23;;;;;;;1.53;1.43;;;10.30;98.40;;;;;;5020900;28;20209;-81
2021/10/09 08:00:49;;;;;;;2.30;0.93;;;10.40;98.10;;;;;;5020224;28;20166;-82
2021/10/09 08:03:15;;;;;;;1.27;1.17;;;10.50;98.20;;;;;;5019750;28;20175;-81
2021/10/09 08:05:40;;;;;;;7.40;2.10;;;10.50;98.40;;;;;;5020471;28;20234;-82
2021/10/09 08:08:06;;;;;;;0.80;0.70;;;10.60;97.80;;;;;;5019829;28;20798;-81
2021/10/09 08:10:32;;;;;;;3.33;1.10;;;10.70;97.40;;;;;;5020318;28;20441;-81
2021/10/09 08:12:58;;;;;;;1.50;1.00;;;10.80;97.30;;;;;;5021608;28;20658;-81
2021/10/09 08:15:24;;;;;;;0.87;0.77;;;10.90;96.80;;;;;;5021310;28;20410;-81
2021/10/09 08:17:49;;;;;;;5.10;1.40;;;10.90;96.30;;;;;;5021935;28;20469;-81
2021/10/09 08:20:16;;;;;;;0.57;0.53;;;11.00;96.50;;;;;;5020873;28;20421;-81
2021/10/09 08:22:55;;;;;;;2.67;2.17;;;11.10;96.40;;;;;;5021323;28;20922;-81
2021/10/09 08:38:59;;;;;;;3.40;1.05;;;11.70;94.40;;;;;;5019989;28;20177;-81
2021/10/09 08:41:25;;;;;;;0.70;0.60;;;11.70;94.40;;;;;;5019306;28;20520;-81
2021/10/09 08:43:53;;;;;;;3.38;1.40;;;11.80;94.00;;;;;;5018304;28;20410;-80
2021/10/09 08:46:20;;;;;;;2.08;1.95;;;11.90;94.00;;;;;;5018676;28;20194;-82
2021/10/09 08:48:50;;;;;;;2.30;1.85;;;12.00;93.50;;;;;;5020870;28;20625;-81
2021/10/09 08:51:24;;;;;;;1.20;1.10;;;12.00;92.70;;;;;;5037220;28;20553;-81
2021/10/09 08:53:50;;;;;;;2.15;0.68;;;12.00;93.90;;;;;;5019521;28;20650;-81
2021/10/09 08:56:40;;;;;;;1.05;0.95;;;12.10;93.50;;;;;;5020043;28;20201;-81
2021/10/09 08:59:13;;;;;;;1.48;1.38;;;12.20;93.50;;;;;;5019456;28;20232;-81
2021/10/09 09:01:55;;;;;;;0.90;0.80;;;12.30;93.60;;;;;;5018971;28;20246;-81
2021/10/09 09:04:45;;;;;;;6.72;1.92;;;12.40;92.50;;;;;;5019521;28;20659;-81
2021/10/09 09:32:25;;;;;;;2.33;2.00;;;13.20;89.80;;;;;;5020991;28;20197;-81
2021/10/09 09:35:20;;;;;;;2.47;2.28;;;13.30;89.90;;;;;;5019197;28;20171;-81
2021/10/09 09:40:36;;;;;;;3.72;2.38;;;13.40;88.80;;;;;;5022441;28;20170;-82
2021/10/09 09:43:02;;;;;;;1.13;1.02;;;13.40;88.70;;;;;;5019034;28;20174;-82
2021/10/09 09:45:28;;;;;;;1.73;1.40;;;13.50;88.90;;;;;;5018983;28;20166;-81
2021/10/09 09:47:56;;;;;;;3.33;3.15;;;13.60;88.00;;;;;;5018401;28;20429;-81
2021/10/09 09:50:23;;;;;;;3.60;2.40;;;13.70;88.00;;;;;;5017734;28;20178;-82
2021/10/09 09:52:49;;;;;;;1.65;1.35;;;13.80;88.10;;;;;;5016720;28;20175;-81
2021/10/09 09:55:18;;;;;;;4.20;2.40;;;13.90;87.40;;;;;;5020476;28;20175;-81
2021/10/09 09:57:44;;;;;;;7.07;1.40;;;14.10;86.20;;;;;;5019151;28;20532;-81
2021/10/09 10:00:16;;;;;;;2.17;2.00;;;14.20;85.90;;;;;;5017466;28;20175;-81
2021/10/09 10:02:44;;;;;;;3.45;1.92;;;14.30;84.80;;;;;;5021801;28;20179;-82
2021/10/09 10:05:12;;;;;;;1.92;1.35;;;14.40;84.50;;;;;;5034834;28;20166;-80
2021/10/09 10:07:39;;;;;;;2.45;0.73;;;14.60;83.50;;;;;;5018718;28;20584;-81
2021/10/09 10:10:06;;;;;;;2.38;2.17;;;14.70;83.00;;;;;;5017632;28;20650;-81
2021/10/09 10:12:33;;;;;;;3.00;1.92;;;14.80;82.40;;;;;;5018908;28;20285;-81
2021/10/09 10:15:00;;;;;;;1.83;1.63;;;14.90;81.60;;;;;;5019339;28;20206;-81
2021/10/09 10:17:55;;;;;;;2.15;1.75;;;15.00;80.60;;;;;;5018741;28;20570;-81
2021/10/09 10:20:42;;;;;;;2.78;1.48;;;15.00;79.60;;;;;;5001842;28;20178;-81
2021/10/09 10:23:08;;;;;;;5.82;1.75;;;15.10;79.40;;;;;;5019023;28;20170;-81
2021/10/09 10:25:35;;;;;;;2.93;2.73;;;15.30;80.10;;;;;;5018378;28;20209;-81
2021/10/09 10:28:22;;;;;;;1.98;1.50;;;15.40;77.60;;;;;;5019095;28;20194;-81
2021/10/09 10:31:04;;;;;;;2.78;1.50;;;15.60;77.70;;;;;;5017465;28;20177;-81
2021/10/09 10:33:36;;;;;;;5.05;1.70;;;15.70;76.20;;;;;;5016384;28;20424;-80
2021/10/09 10:36:02;;;;;;;3.88;1.15;;;15.80;74.40;;;;;;5017155;28;20170;-81
2021/10/09 10:38:35;;;;;;;1.90;1.70;;;15.90;74.10;;;;;;5016855;28;20204;-81
2021/10/09 10:41:05;;;;;;;2.15;1.73;;;16.00;72.10;;;;;;5035221;28;20173;-82
2021/10/09 10:43:33;;;;;;;7.72;1.98;;;16.10;72.70;;;;;;5017629;28;20706;-81
2021/10/09 10:46:02;;;;;;;1.40;1.30;;;16.20;73.00;;;;;;5033988;28;20178;-82
2021/10/09 10:48:54;;;;;;;1.73;1.63;;;16.40;71.30;;;;;;5017863;28;20175;-82
2021/10/09 10:51:49;;;;;;;2.95;2.03;;;16.50;71.40;;;;;;5018441;28;20293;-82
2021/10/09 10:54:38;;;;;;;2.70;1.90;;;16.70;70.60;;;;;;5034128;28;20206;-81
2021/10/09 10:57:06;;;;;;;1.85;1.75;;;16.90;70.20;;;;;;5016938;28;20202;-81
2021/10/09 10:59:52;;;;;;;2.70;2.35;;;17.00;70.30;;;;;;5033623;28;20175;-81
2021/10/09 11:02:36;;;;;;;1.58;1.42;;;17.10;69.80;;;;;;5016263;28;20173;-81
2021/10/09 11:05:20;;;;;;;2.20;1.70;;;17.20;67.70;;;;;;5016548;28;20175;-82
2021/10/09 11:07:46;;;;;;;1.45;1.35;;;17.30;68.30;;;;;;5016414;28;20208;-82
2021/10/09 11:10:20;;;;;;;1.17;0.97;;;17.40;66.40;;;;;;5015832;28;20257;-81
2021/10/09 11:12:49;;;;;;;0.95;0.90;;;17.60;66.00;;;;;;5017515;28;20441;-81
2021/10/09 11:15:23;;;;;;;2.75;1.60;;;17.70;65.50;;;;;;5020433;28;20233;-82
2021/10/09 11:17:55;;;;;;;1.38;1.27;;;17.80;65.80;;;;;;5019969;28;20194;-82
2021/10/09 11:20:22;;;;;;;3.28;1.60;;;17.90;65.60;;;;;;5036045;28;20186;-82
2021/10/09 11:22:50;;;;;;;2.38;1.70;;;18.10;65.90;;;;;;5035511;28;20256;-82
2021/10/09 11:25:33;;;;;;;1.80;1.70;;;18.30;64.50;;;;;;5018902;28;20174;-82
2021/10/09 11:28:01;;;;;;;1.75;1.73;;;18.50;65.30;;;;;;5018004;28;20752;-82
2021/10/09 11:30:31;;;;;;;2.78;2.17;;;18.50;63.90;;;;;;5018942;28;20170;-83
2021/10/09 11:32:57;;;;;;;3.88;2.13;;;18.60;65.60;;;;;;5017176;28;20185;-83
2021/10/09 11:35:37;;;;;;;3.47;1.60;;;18.70;63.30;;;;;;5017318;28;20174;-83
2021/10/09 11:38:18;;;;;;;2.83;2.10;;;18.70;62.80;;;;;;5018127;28;20226;-83
2021/10/09 11:40:49;;;;;;;1.67;1.05;;;18.70;63.10;;;;;;5016988;28;20170;-82
2021/10/09 11:43:22;;;;;;;3.25;1.85;;;18.70;62.30;;;;;;5017233;28;20209;-82
2021/10/09 11:56:56;;;;;;;1.42;1.33;;;19.10;62.30;;;;;;4990252;28;20297;-83
2021/10/09 11:59:39;;;;;;;2.37;1.83;;;19.10;61.40;;;;;;5021220;28;20209;-83
2021/10/09 12:02:06;;;;;;;4.50;2.47;;;19.10;62.60;;;;;;5022655;28;20170;-83
2021/10/09 12:04:32;;;;;;;5.88;2.35;;;19.20;62.60;;;;;;5019496;28;20181;-82
2021/10/09 12:07:09;;;;;;;3.95;1.83;;;19.40;62.40;;;;;;5021252;28;20187;-83
2021/10/09 12:09:45;;;;;;;3.22;1.33;;;19.50;61.30;;;;;;5019268;28;20658;-83
2021/10/09 12:12:20;;;;;;;2.40;1.55;;;19.60;60.60;;;;;;5019308;28;20205;-83
2021/10/09 12:14:48;;;;;;;1.60;1.27;;;19.70;61.20;;;;;;5019251;28;20181;-83
2021/10/09 12:17:14;;;;;;;5.03;2.55;;;20.00;58.80;;;;;;5018860;28;20289;-83
2021/10/09 12:19:40;;;;;;;2.70;1.88;;;20.10;59.20;;;;;;5019104;28;20167;-83
2021/10/09 12:22:11;;;;;;;1.13;1.02;;;20.20;57.90;;;;;;5018641;28;20170;-83
2021/10/09 12:24:49;;;;;;;3.13;1.75;;;20.20;59.20;;;;;;5019216;28;20262;-83
2021/10/09 12:27:18;;;;;;;13.27;1.85;;;20.20;57.60;;;;;;5018506;28;20558;-83
2021/10/09 12:30:09;;;;;;;6.35;2.40;;;20.30;59.60;;;;;;5018601;28;20666;-84
2021/10/09 12:32:41;;;;;;;3.83;2.50;;;20.30;59.10;;;;;;5018430;28;20655;-83
2021/10/09 12:35:22;;;;;;;3.70;2.55;;;20.40;58.50;;;;;;5017966;28;20201;-83
2021/10/09 12:38:01;;;;;;;4.13;2.10;;;20.40;60.20;;;;;;5017945;28;20743;-83
2021/10/09 12:40:46;;;;;;;3.58;1.67;;;20.40;58.90;;;;;;5033985;28;20174;-83
2021/10/09 12:43:17;;;;;;;4.13;1.70;;;20.50;56.30;;;;;;5018425;28;20178;-82
2021/10/09 12:45:43;;;;;;;4.30;2.10;;;20.40;58.10;;;;;;5019171;28;20594;-83
2021/10/09 12:48:09;;;;;;;5.80;3.17;;;20.40;57.90;;;;;;5017874;28;20709;-83
2021/10/09 12:50:38;;;;;;;1.15;1.05;;;20.40;56.70;;;;;;5018459;28;20174;-83
2021/10/09 12:53:05;;;;;;;4.22;2.53;;;20.40;57.60;;;;;;5018059;28;20181;-83
2021/10/09 12:55:33;;;;;;;3.38;2.00;;;20.40;56.70;;;;;;5018249;28;20185;-83
2021/10/09 12:58:04;;;;;;;1.83;1.70;;;20.30;57.70;;;;;;5017718;28;20198;-82
2021/10/09 13:00:31;;;;;;;4.55;2.90;;;20.20;56.70;;;;;;5018768;28;20761;-82
2021/10/09 13:02:57;;;;;;;1.77;1.67;;;20.20;58.70;;;;;;5018117;28;20257;-83
2021/10/09 13:05:25;;;;;;;5.15;2.38;;;20.30;56.80;;;;;;5017797;28;20170;-83
2021/10/09 13:07:52;;;;;;;3.90;1.95;;;20.20;57.40;;;;;;5017172;28;20208;-83
2021/10/09 13:10:19;;;;;;;2.10;1.90;;;20.00;58.00;;;;;;5017215;28;20269;-83
2021/10/09 13:12:45;;;;;;;1.80;1.20;;;20.10;58.90;;;;;;5038363;23;20213;-82
2021/10/09 13:15:17;;;;;;;2.80;1.70;;;20.10;57.10;;;;;;5043765;28;20237;-82
2021/10/09 13:17:46;;;;;;;2.55;1.83;;;20.10;57.10;;;;;;5042748;28;20205;-82
2021/10/09 13:20:12;;;;;;;1.33;1.30;;;20.10;57.40;;;;;;5042648;28;20174;-82
2021/10/09 13:22:38;;;;;;;4.05;2.42;;;20.20;57.00;;;;;;5041425;28;20630;-83
2021/10/09 13:25:05;;;;;;;3.90;1.88;;;20.10;58.80;;;;;;5044761;28;20174;-84
2021/10/09 13:27:31;;;;;;;3.28;1.80;;;20.10;57.70;;;;;;5043734;28;20217;-82
2021/10/09 13:29:58;;;;;;;1.25;0.93;;;20.20;58.00;;;;;;5040901;28;20616;-83
2021/10/09 13:32:25;;;;;;;5.75;2.40;;;20.20;59.80;;;;;;5042161;28;20419;-81
2021/10/09 13:34:50;;;;;;;1.80;1.27;;;20.30;57.20;;;;;;5042624;28;20178;-83
2021/10/09 13:37:20;;;;;;;3.60;1.53;;;20.30;58.70;;;;;;5041418;28;20209;-83
2021/10/09 13:39:52;;;;;;;2.45;1.45;;;20.30;56.30;;;;;;5042852;28;20486;-82
2021/10/09 13:42:18;;;;;;;1.92;1.48;;;20.20;57.70;;;;;;5042006;28;20178;-82
2021/10/09 13:44:44;;;;;;;2.60;2.28;;;20.00;57.10;;;;;;5040758;28;20245;-83
2021/10/09 13:47:10;;;;;;;2.20;1.50;;;19.90;58.50;;;;;;5043482;28;20203;-82
2021/10/09 13:49:37;;;;;;;3.55;2.05;;;19.90;57.40;;;;;;5041146;28;20178;-83
2021/10/09 13:52:03;;;;;;;2.85;2.47;;;19.90;58.10;;;;;;5040602;28;20265;-82
2021/10/09 13:54:28;;;;;;;2.03;1.85;;;20.00;58.10;;;;;;5039626;28;20170;-83
2021/10/09 13:56:54;;;;;;;3.50;2.33;;;20.00;57.40;;;;;;5038381;28;20193;-82
2021/10/09 13:59:20;;;;;;;4.83;3.40;;;19.90;57.90;;;;;;5038254;28;20208;-83
2021/10/09 14:01:47;;;;;;;3.47;1.63;;;19.90;57.20;;;;;;5037922;28;20173;-83
2021/10/09 14:04:13;;;;;;;2.33;1.55;;;19.80;58.90;;;;;;5040497;28;20512;-83
2021/10/09 14:06:39;;;;;;;3.17;2.13;;;19.80;57.10;;;;;;5039256;28;20229;-83
2021/10/09 14:09:05;;;;;;;3.03;1.50;;;19.80;56.70;;;;;;5036223;28;20788;-83
2021/10/09 14:11:32;;;;;;;2.75;1.52;;;19.70;58.00;;;;;;5038030;28;20206;-83
2021/10/09 14:13:57;;;;;;;3.78;2.47;;;19.80;57.60;;;;;;5036609;28;20239;-83
2021/10/09 14:16:23;;;;;;;2.50;1.83;;;19.70;57.70;;;;;;5038624;28;20202;-83
2021/10/09 14:18:49;;;;;;;4.17;2.70;;;19.60;58.50;;;;;;5037363;28;20208;-82
2021/10/09 14:21:15;;;;;;;1.77;1.00;;;19.40;58.40;;;;;;5038076;28;20404;-82
2021/10/09 14:23:42;;;;;;;2.90;1.50;;;19.30;58.70;;;;;;5036892;28;20420;-83
2021/10/09 14:26:08;;;;;;;1.92;1.70;;;19.20;59.20;;;;;;5037006;28;20956;-83
2021/10/09 14:28:34;;;;;;;2.73;1.93;;;19.10;59.80;;;;;;5037922;28;20269;-82
2021/10/09 14:30:59;;;;;;;1.13;0.97;;;19.20;59.60;;;;;;5038739;28;20484;-83
2021/10/09 14:33:25;;;;;;;1.80;1.70;;;19.10;59.20;;;;;;5038033;28;20451;-82
2021/10/09 14:35:51;;;;;;;1.70;1.00;;;19.00;59.40;;;;;;5037529;28;20424;-84
2021/10/09 14:38:17;;;;;;;2.47;1.53;;;18.90;59.60;;;;;;5036603;28;20444;-83
2021/10/09 14:40:43;;;;;;;10.83;1.70;;;18.90;60.30;;;;;;5036549;28;20411;-83
2021/10/09 14:43:10;;;;;;;4.28;2.13;;;18.80;59.80;;;;;;5035696;28;20420;-83
2021/10/09 14:45:36;;;;;;;3.15;1.98;;;18.70;59.40;;;;;;5034419;28;20713;-83
2021/10/09 14:48:12;;;;;;;4.25;2.10;;;18.60;60.20;;;;;;5036318;28;20217;-83
2021/10/09 15:20:03;;;;;;;2.40;1.65;;;17.70;62.10;;;;;;5037372;28;20182;-83
2021/10/09 15:22:30;;;;;;;1.65;1.10;;;17.70;62.00;;;;;;5041086;28;20172;-83
2021/10/09 15:24:56;;;;;;;5.50;1.67;;;17.60;61.30;;;;;;5037979;28;20265;-83
2021/10/09 15:27:23;;;;;;;2.90;1.50;;;17.60;61.70;;;;;;5038424;28;20681;-83
2021/10/09 15:29:49;;;;;;;1.63;1.48;;;17.50;62.80;;;;;;5038936;28;20649;-83
2021/10/09 15:32:15;;;;;;;3.15;2.25;;;17.50;62.30;;;;;;5039424;28;20529;-83
2021/10/09 15:34:41;;;;;;;0.88;0.77;;;17.50;61.00;;;;;;5039316;28;20700;-82
2021/10/09 15:37:08;;;;;;;1.90;1.53;;;17.40;61.30;;;;;;5038167;28;20206;-83
2021/10/09 15:39:34;;;;;;;2.70;1.90;;;17.40;62.10;;;;;;5037990;28;20415;-84
2021/10/09 15:42:02;;;;;;;2.17;1.33;;;17.30;61.70;;;;;;5038473;28;20177;-84